sensor_id;sensor_type;location;lat;lon;timestamp;P1;durP1;ratioP1;P2;durP2;ratioP2
40729;SDS011;26418;50.070;8.436;2023-03-14T00:02:02;2.33;;;1.10;;
40729;SDS011;26418;50.070;8.436;2023-03-14T00:04:27;2.60;;;0.95;;
40729;SDS011;26418;50.070;8.436;2023-03-14T00:06:52;6.05;;;1.30;;
40729;SDS011;26418;50.070;8.436;2023-03-14T00:09:17;2.63;;;1.08;;
40729;SDS011;26418;50.070;8.436;2023-03-14T00:11:43;1.55;;;1.10;;
40729;SDS011;26418;50.070;8.436;2023-03-14T00:14:08;1.63;;;1.20;;
40729;SDS011;26418;50.070;8.436;2023-03-14T00:16:33;2.20;;;0.95;;
40729;SDS011;26418;50.070;8.436;2023-03-14T00:18:59;1.75;;;0.80;;
40729;SDS011;26418;50.070;8.436;2023-03-14T00:21:24;2.47;;;0.60;;
40729;SDS011;26418;50.070;8.436;2023-03-14T00:23:50;1.58;;;0.85;;
40729;SDS011;26418;50.070;8.436;2023-03-14T00:26:17;1.30;;;0.75;;
40729;SDS011;26418;50.070;8.436;2023-03-14T00:28:44;3.50;;;1.30;;
40729;SDS011;26418;50.070;8.436;2023-03-14T00:31:11;1.02;;;0.65;;
40729;SDS011;26418;50.070;8.436;2023-03-14T00:33:38;1.38;;;0.73;;
40729;SDS011;26418;50.070;8.436;2023-03-14T00:36:04;3.92;;;0.47;;
40729;SDS011;26418;50.070;8.436;2023-03-14T00:38:33;5.15;;;1.50;;
40729;SDS011;26418;50.070;8.436;2023-03-14T00:41:01;5.88;;;1.20;;
40729;SDS011;26418;50.070;8.436;2023-03-14T00:43:28;1.85;;;0.80;;
40729;SDS011;26418;50.070;8.436;2023-03-14T00:45:53;2.33;;;0.95;;
40729;SDS011;26418;50.070;8.436;2023-03-14T00:48:19;6.18;;;1.15;;
40729;SDS011;26418;50.070;8.436;2023-03-14T00:50:45;2.40;;;1.25;;
40729;SDS011;26418;50.070;8.436;2023-03-14T00:53:11;3.60;;;0.95;;
40729;SDS011;26418;50.070;8.436;2023-03-14T00:55:39;3.30;;;1.10;;
40729;SDS011;26418;50.070;8.436;2023-03-14T00:58:07;4.97;;;1.23;;
40729;SDS011;26418;50.070;8.436;2023-03-14T01:00:33;4.72;;;1.35;;
40729;SDS011;26418;50.070;8.436;2023-03-14T01:02:58;6.13;;;1.40;;
40729;SDS011;26418;50.070;8.436;2023-03-14T01:05:24;5.03;;;1.05;;
40729;SDS011;26418;50.070;8.436;2023-03-14T01:07:49;2.15;;;1.00;;
40729;SDS011;26418;50.070;8.436;2023-03-14T01:10:15;5.82;;;1.23;;
40729;SDS011;26418;50.070;8.436;2023-03-14T01:12:41;5.72;;;1.08;;
40729;SDS011;26418;50.070;8.436;2023-03-14T01:15:06;5.10;;;1.05;;
40729;SDS011;26418;50.070;8.436;2023-03-14T01:17:32;10.52;;;1.35;;
40729;SDS011;26418;50.070;8.436;2023-03-14T01:19:57;4.25;;;0.90;;
40729;SDS011;26418;50.070;8.436;2023-03-14T01:22:22;3.80;;;1.27;;
40729;SDS011;26418;50.070;8.436;2023-03-14T01:24:48;3.92;;;1.08;;
40729;SDS011;26418;50.070;8.436;2023-03-14T01:27:13;5.57;;;2.08;;
40729;SDS011;26418;50.070;8.436;2023-03-14T01:29:38;8.40;;;1.42;;
40729;SDS011;26418;50.070;8.436;2023-03-14T01:32:04;6.28;;;1.17;;
40729;SDS011;26418;50.070;8.436;2023-03-14T01:34:29;3.17;;;0.90;;
40729;SDS011;26418;50.070;8.436;2023-03-14T01:36:55;7.18;;;1.50;;
40729;SDS011;26418;50.070;8.436;2023-03-14T01:39:20;3.42;;;1.00;;
40729;SDS011;26418;50.070;8.436;2023-03-14T01:41:45;4.90;;;1.55;;
40729;SDS011;26418;50.070;8.436;2023-03-14T01:44:11;6.38;;;1.20;;
40729;SDS011;26418;50.070;8.436;2023-03-14T01:46:38;5.65;;;1.25;;
40729;SDS011;26418;50.070;8.436;2023-03-14T01:54:20;3.70;;;1.02;;
40729;SDS011;26418;50.070;8.436;2023-03-14T01:56:55;4.30;;;0.63;;
40729;SDS011;26418;50.070;8.436;2023-03-14T01:59:40;8.88;;;1.83;;
40729;SDS011;26418;50.070;8.436;2023-03-14T02:02:11;5.18;;;1.02;;
40729;SDS011;26418;50.070;8.436;2023-03-14T02:04:37;4.03;;;1.13;;
40729;SDS011;26418;50.070;8.436;2023-03-14T02:07:20;3.60;;;1.40;;
40729;SDS011;26418;50.070;8.436;2023-03-14T02:10:00;4.82;;;0.95;;
40729;SDS011;26418;50.070;8.436;2023-03-14T02:12:26;8.25;;;1.50;;
40729;SDS011;26418;50.070;8.436;2023-03-14T02:14:52;4.20;;;1.25;;
40729;SDS011;26418;50.070;8.436;2023-03-14T02:17:18;6.88;;;1.73;;
40729;SDS011;26418;50.070;8.436;2023-03-14T02:20:03;3.88;;;1.10;;
40729;SDS011;26418;50.070;8.436;2023-03-14T02:22:35;5.95;;;1.15;;
40729;SDS011;26418;50.070;8.436;2023-03-14T02:28:16;5.10;;;1.27;;
40729;SDS011;26418;50.070;8.436;2023-03-14T02:30:41;4.22;;;1.10;;
40729;SDS011;26418;50.070;8.436;2023-03-14T02:33:11;4.60;;;1.30;;
40729;SDS011;26418;50.070;8.436;2023-03-14T02:35:44;6.20;;;1.30;;
40729;SDS011;26418;50.070;8.436;2023-03-14T02:40:46;5.57;;;1.08;;
40729;SDS011;26418;50.070;8.436;2023-03-14T02:43:11;3.88;;;0.98;;
40729;SDS011;26418;50.070;8.436;2023-03-14T02:45:38;7.15;;;1.23;;
40729;SDS011;26418;50.070;8.436;2023-03-14T02:48:07;4.30;;;1.48;;
40729;SDS011;26418;50.070;8.436;2023-03-14T02:50:38;10.63;;;1.45;;
40729;SDS011;26418;50.070;8.436;2023-03-14T02:53:04;3.70;;;1.20;;
40729;SDS011;26418;50.070;8.436;2023-03-14T02:55:30;10.48;;;1.30;;
40729;SDS011;26418;50.070;8.436;2023-03-14T02:57:55;5.18;;;1.20;;
40729;SDS011;26418;50.070;8.436;2023-03-14T03:00:20;5.63;;;1.25;;
40729;SDS011;26418;50.070;8.436;2023-03-14T03:02:46;3.45;;;1.63;;
40729;SDS011;26418;50.070;8.436;2023-03-14T03:05:11;7.00;;;1.38;;
40729;SDS011;26418;50.070;8.436;2023-03-14T03:07:36;3.45;;;0.93;;
40729;SDS011;26418;50.070;8.436;2023-03-14T03:10:02;5.45;;;1.17;;
40729;SDS011;26418;50.070;8.436;2023-03-14T03:12:28;5.35;;;1.20;;
40729;SDS011;26418;50.070;8.436;2023-03-14T03:14:53;4.80;;;1.40;;
40729;SDS011;26418;50.070;8.436;2023-03-14T03:17:18;3.85;;;1.27;;
40729;SDS011;26418;50.070;8.436;2023-03-14T03:19:44;2.97;;;0.90;;
40729;SDS011;26418;50.070;8.436;2023-03-14T03:22:09;4.55;;;0.93;;
40729;SDS011;26418;50.070;8.436;2023-03-14T03:24:34;4.57;;;1.30;;
40729;SDS011;26418;50.070;8.436;2023-03-14T03:27:00;7.57;;;1.33;;
40729;SDS011;26418;50.070;8.436;2023-03-14T03:29:25;5.32;;;1.15;;
40729;SDS011;26418;50.070;8.436;2023-03-14T03:31:50;5.70;;;1.13;;
40729;SDS011;26418;50.070;8.436;2023-03-14T03:34:16;6.93;;;1.25;;
40729;SDS011;26418;50.070;8.436;2023-03-14T03:36:41;5.70;;;1.05;;
40729;SDS011;26418;50.070;8.436;2023-03-14T03:39:06;4.13;;;1.15;;
40729;SDS011;26418;50.070;8.436;2023-03-14T03:41:32;3.88;;;0.90;;
40729;SDS011;26418;50.070;8.436;2023-03-14T03:43:58;7.97;;;1.73;;
40729;SDS011;26418;50.070;8.436;2023-03-14T03:46:23;4.47;;;1.30;;
40729;SDS011;26418;50.070;8.436;2023-03-14T03:48:53;4.43;;;1.02;;
40729;SDS011;26418;50.070;8.436;2023-03-14T03:51:20;5.00;;;1.38;;
40729;SDS011;26418;50.070;8.436;2023-03-14T03:53:45;4.28;;;1.52;;
40729;SDS011;26418;50.070;8.436;2023-03-14T03:56:10;5.40;;;1.38;;
40729;SDS011;26418;50.070;8.436;2023-03-14T03:58:36;8.52;;;1.35;;
40729;SDS011;26418;50.070;8.436;2023-03-14T04:01:03;4.13;;;1.25;;
40729;SDS011;26418;50.070;8.436;2023-03-14T04:03:29;6.72;;;1.23;;
40729;SDS011;26418;50.070;8.436;2023-03-14T04:06:02;9.00;;;1.20;;
40729;SDS011;26418;50.070;8.436;2023-03-14T04:08:29;7.10;;;1.15;;
40729;SDS011;26418;50.070;8.436;2023-03-14T04:10:56;3.47;;;0.57;;
40729;SDS011;26418;50.070;8.436;2023-03-14T04:13:22;4.57;;;1.30;;
40729;SDS011;26418;50.070;8.436;2023-03-14T04:15:48;5.32;;;1.20;;
40729;SDS011;26418;50.070;8.436;2023-03-14T04:18:13;4.13;;;1.23;;
40729;SDS011;26418;50.070;8.436;2023-03-14T04:20:38;7.20;;;1.02;;
40729;SDS011;26418;50.070;8.436;2023-03-14T04:23:04;4.95;;;1.45;;
40729;SDS011;26418;50.070;8.436;2023-03-14T04:25:29;8.10;;;1.42;;
40729;SDS011;26418;50.070;8.436;2023-03-14T04:27:54;10.98;;;1.90;;
40729;SDS011;26418;50.070;8.436;2023-03-14T04:30:20;10.20;;;1.13;;
40729;SDS011;26418;50.070;8.436;2023-03-14T04:32:45;2.83;;;0.88;;
40729;SDS011;26418;50.070;8.436;2023-03-14T04:35:10;2.42;;;0.95;;
40729;SDS011;26418;50.070;8.436;2023-03-14T04:37:36;4.65;;;0.90;;
40729;SDS011;26418;50.070;8.436;2023-03-14T04:40:01;8.93;;;1.52;;
40729;SDS011;26418;50.070;8.436;2023-03-14T04:42:29;5.07;;;1.35;;
40729;SDS011;26418;50.070;8.436;2023-03-14T04:44:54;4.15;;;0.77;;
40729;SDS011;26418;50.070;8.436;2023-03-14T04:47:19;3.67;;;1.00;;
40729;SDS011;26418;50.070;8.436;2023-03-14T04:49:44;3.42;;;0.70;;
40729;SDS011;26418;50.070;8.436;2023-03-14T04:52:10;4.40;;;1.10;;
40729;SDS011;26418;50.070;8.436;2023-03-14T04:54:35;4.13;;;1.17;;
40729;SDS011;26418;50.070;8.436;2023-03-14T04:57:00;6.10;;;0.93;;
40729;SDS011;26418;50.070;8.436;2023-03-14T04:59:26;7.88;;;1.27;;
40729;SDS011;26418;50.070;8.436;2023-03-14T05:01:51;4.30;;;1.08;;
40729;SDS011;26418;50.070;8.436;2023-03-14T05:04:17;3.40;;;0.60;;
40729;SDS011;26418;50.070;8.436;2023-03-14T05:06:42;2.92;;;0.70;;
40729;SDS011;26418;50.070;8.436;2023-03-14T05:09:07;5.30;;;0.68;;
40729;SDS011;26418;50.070;8.436;2023-03-14T05:11:33;4.53;;;0.90;;
40729;SDS011;26418;50.070;8.436;2023-03-14T05:13:58;4.35;;;1.20;;
40729;SDS011;26418;50.070;8.436;2023-03-14T05:16:23;4.75;;;0.93;;
40729;SDS011;26418;50.070;8.436;2023-03-14T05:18:48;1.58;;;0.73;;
40729;SDS011;26418;50.070;8.436;2023-03-14T05:21:15;3.05;;;0.90;;
40729;SDS011;26418;50.070;8.436;2023-03-14T05:23:40;1.88;;;0.50;;
40729;SDS011;26418;50.070;8.436;2023-03-14T05:26:05;4.88;;;0.88;;
40729;SDS011;26418;50.070;8.436;2023-03-14T05:28:31;1.75;;;0.80;;
40729;SDS011;26418;50.070;8.436;2023-03-14T05:30:56;2.67;;;0.68;;
40729;SDS011;26418;50.070;8.436;2023-03-14T05:33:22;6.68;;;0.65;;
40729;SDS011;26418;50.070;8.436;2023-03-14T05:35:47;2.65;;;0.52;;
40729;SDS011;26418;50.070;8.436;2023-03-14T05:38:12;2.15;;;0.55;;
40729;SDS011;26418;50.070;8.436;2023-03-14T05:40:38;4.10;;;1.13;;
40729;SDS011;26418;50.070;8.436;2023-03-14T05:43:03;1.02;;;0.38;;
40729;SDS011;26418;50.070;8.436;2023-03-14T05:45:28;3.03;;;0.77;;
40729;SDS011;26418;50.070;8.436;2023-03-14T05:47:54;3.30;;;0.55;;
40729;SDS011;26418;50.070;8.436;2023-03-14T05:50:19;2.53;;;0.57;;
40729;SDS011;26418;50.070;8.436;2023-03-14T05:52:44;2.63;;;0.70;;
40729;SDS011;26418;50.070;8.436;2023-03-14T05:55:10;2.38;;;0.60;;
40729;SDS011;26418;50.070;8.436;2023-03-14T05:57:35;2.88;;;0.90;;
40729;SDS011;26418;50.070;8.436;2023-03-14T06:00:00;3.67;;;0.90;;
40729;SDS011;26418;50.070;8.436;2023-03-14T06:02:26;3.45;;;1.08;;
40729;SDS011;26418;50.070;8.436;2023-03-14T06:04:51;4.20;;;0.90;;
40729;SDS011;26418;50.070;8.436;2023-03-14T06:07:17;1.60;;;0.60;;
40729;SDS011;26418;50.070;8.436;2023-03-14T06:09:43;3.97;;;0.70;;
40729;SDS011;26418;50.070;8.436;2023-03-14T06:12:08;4.10;;;0.95;;
40729;SDS011;26418;50.070;8.436;2023-03-14T06:14:33;3.53;;;0.80;;
40729;SDS011;26418;50.070;8.436;2023-03-14T06:16:58;2.67;;;0.88;;
40729;SDS011;26418;50.070;8.436;2023-03-14T06:19:24;5.50;;;0.95;;
40729;SDS011;26418;50.070;8.436;2023-03-14T06:21:50;4.10;;;0.68;;
40729;SDS011;26418;50.070;8.436;2023-03-14T06:24:16;4.28;;;0.60;;
40729;SDS011;26418;50.070;8.436;2023-03-14T06:26:42;2.28;;;0.68;;
40729;SDS011;26418;50.070;8.436;2023-03-14T06:29:07;6.18;;;0.80;;
40729;SDS011;26418;50.070;8.436;2023-03-14T06:31:32;2.53;;;0.52;;
40729;SDS011;26418;50.070;8.436;2023-03-14T06:33:58;1.77;;;0.70;;
40729;SDS011;26418;50.070;8.436;2023-03-14T06:36:23;3.33;;;1.50;;
40729;SDS011;26418;50.070;8.436;2023-03-14T06:38:49;1.73;;;0.50;;
40729;SDS011;26418;50.070;8.436;2023-03-14T06:41:15;6.65;;;0.80;;
40729;SDS011;26418;50.070;8.436;2023-03-14T06:43:40;2.45;;;0.90;;
40729;SDS011;26418;50.070;8.436;2023-03-14T06:46:06;4.18;;;0.70;;
40729;SDS011;26418;50.070;8.436;2023-03-14T06:48:31;3.58;;;0.52;;
40729;SDS011;26418;50.070;8.436;2023-03-14T06:50:56;4.95;;;1.17;;
40729;SDS011;26418;50.070;8.436;2023-03-14T06:53:22;4.35;;;1.08;;
40729;SDS011;26418;50.070;8.436;2023-03-14T06:55:47;4.60;;;0.90;;
40729;SDS011;26418;50.070;8.436;2023-03-14T06:58:12;4.10;;;0.75;;
40729;SDS011;26418;50.070;8.436;2023-03-14T07:00:38;3.55;;;0.47;;
40729;SDS011;26418;50.070;8.436;2023-03-14T07:03:03;1.42;;;0.60;;
40729;SDS011;26418;50.070;8.436;2023-03-14T07:05:28;2.38;;;0.90;;
40729;SDS011;26418;50.070;8.436;2023-03-14T07:07:54;2.42;;;0.80;;
40729;SDS011;26418;50.070;8.436;2023-03-14T07:10:19;4.65;;;0.75;;
40729;SDS011;26418;50.070;8.436;2023-03-14T07:12:45;2.17;;;0.60;;
40729;SDS011;26418;50.070;8.436;2023-03-14T07:15:10;8.88;;;0.82;;
40729;SDS011;26418;50.070;8.436;2023-03-14T07:17:36;1.67;;;0.80;;
40729;SDS011;26418;50.070;8.436;2023-03-14T07:20:01;4.25;;;0.73;;
40729;SDS011;26418;50.070;8.436;2023-03-14T07:22:29;1.95;;;0.75;;
40729;SDS011;26418;50.070;8.436;2023-03-14T07:24:54;4.03;;;0.90;;
40729;SDS011;26418;50.070;8.436;2023-03-14T07:27:19;2.13;;;0.68;;
40729;SDS011;26418;50.070;8.436;2023-03-14T07:29:45;2.72;;;0.55;;
40729;SDS011;26418;50.070;8.436;2023-03-14T07:32:10;3.40;;;1.05;;
40729;SDS011;26418;50.070;8.436;2023-03-14T07:34:39;2.25;;;0.55;;
40729;SDS011;26418;50.070;8.436;2023-03-14T07:37:05;2.58;;;0.68;;
40729;SDS011;26418;50.070;8.436;2023-03-14T07:39:30;1.80;;;0.80;;
40729;SDS011;26418;50.070;8.436;2023-03-14T07:41:55;4.82;;;0.57;;
40729;SDS011;26418;50.070;8.436;2023-03-14T07:44:21;4.90;;;1.15;;
40729;SDS011;26418;50.070;8.436;2023-03-14T07:46:46;4.63;;;0.95;;
40729;SDS011;26418;50.070;8.436;2023-03-14T07:49:11;2.22;;;0.70;;
40729;SDS011;26418;50.070;8.436;2023-03-14T07:51:37;2.95;;;0.80;;
40729;SDS011;26418;50.070;8.436;2023-03-14T07:54:02;3.65;;;0.75;;
40729;SDS011;26418;50.070;8.436;2023-03-14T07:56:27;3.42;;;0.73;;
40729;SDS011;26418;50.070;8.436;2023-03-14T07:58:53;4.78;;;0.88;;
40729;SDS011;26418;50.070;8.436;2023-03-14T08:01:18;3.13;;;0.68;;
40729;SDS011;26418;50.070;8.436;2023-03-14T08:03:43;1.85;;;0.70;;
40729;SDS011;26418;50.070;8.436;2023-03-14T08:06:09;4.85;;;0.85;;
40729;SDS011;26418;50.070;8.436;2023-03-14T08:08:34;1.85;;;0.75;;
40729;SDS011;26418;50.070;8.436;2023-03-14T08:11:06;1.80;;;0.77;;
40729;SDS011;26418;50.070;8.436;2023-03-14T08:13:33;2.97;;;1.13;;
40729;SDS011;26418;50.070;8.436;2023-03-14T08:15:59;1.90;;;0.93;;
40729;SDS011;26418;50.070;8.436;2023-03-14T08:18:24;2.63;;;0.80;;
40729;SDS011;26418;50.070;8.436;2023-03-14T08:20:49;9.52;;;1.17;;
40729;SDS011;26418;50.070;8.436;2023-03-14T08:23:15;2.33;;;0.90;;
40729;SDS011;26418;50.070;8.436;2023-03-14T08:25:40;5.40;;;1.30;;
40729;SDS011;26418;50.070;8.436;2023-03-14T08:28:06;1.98;;;0.70;;
40729;SDS011;26418;50.070;8.436;2023-03-14T08:30:31;1.83;;;0.90;;
40729;SDS011;26418;50.070;8.436;2023-03-14T08:32:57;4.28;;;1.15;;
40729;SDS011;26418;50.070;8.436;2023-03-14T08:35:23;5.80;;;1.10;;
40729;SDS011;26418;50.070;8.436;2023-03-14T08:37:48;3.15;;;0.93;;
40729;SDS011;26418;50.070;8.436;2023-03-14T08:40:14;2.53;;;1.30;;
40729;SDS011;26418;50.070;8.436;2023-03-14T08:42:41;3.50;;;1.35;;
40729;SDS011;26418;50.070;8.436;2023-03-14T08:45:07;5.22;;;1.50;;
40729;SDS011;26418;50.070;8.436;2023-03-14T08:47:35;3.17;;;1.73;;
40729;SDS011;26418;50.070;8.436;2023-03-14T08:50:00;3.00;;;1.70;;
40729;SDS011;26418;50.070;8.436;2023-03-14T08:52:26;1.98;;;1.00;;
40729;SDS011;26418;50.070;8.436;2023-03-14T08:54:51;2.38;;;1.42;;
40729;SDS011;26418;50.070;8.436;2023-03-14T08:57:16;1.60;;;1.00;;
40729;SDS011;26418;50.070;8.436;2023-03-14T08:59:41;3.50;;;1.40;;
40729;SDS011;26418;50.070;8.436;2023-03-14T09:02:09;2.03;;;1.20;;
40729;SDS011;26418;50.070;8.436;2023-03-14T09:04:36;5.30;;;1.27;;
40729;SDS011;26418;50.070;8.436;2023-03-14T09:07:01;1.55;;;1.00;;
40729;SDS011;26418;50.070;8.436;2023-03-14T09:09:27;3.17;;;1.20;;
40729;SDS011;26418;50.070;8.436;2023-03-14T09:11:52;2.85;;;0.82;;
40729;SDS011;26418;50.070;8.436;2023-03-14T09:14:18;3.80;;;1.20;;
40729;SDS011;26418;50.070;8.436;2023-03-14T09:16:43;3.55;;;0.98;;
40729;SDS011;26418;50.070;8.436;2023-03-14T09:19:08;3.78;;;1.00;;
40729;SDS011;26418;50.070;8.436;2023-03-14T09:21:34;3.15;;;0.70;;
40729;SDS011;26418;50.070;8.436;2023-03-14T09:23:59;2.35;;;1.00;;
40729;SDS011;26418;50.070;8.436;2023-03-14T09:26:25;2.25;;;0.75;;
40729;SDS011;26418;50.070;8.436;2023-03-14T09:28:50;2.70;;;0.73;;
40729;SDS011;26418;50.070;8.436;2023-03-14T09:31:15;1.73;;;1.05;;
40729;SDS011;26418;50.070;8.436;2023-03-14T09:33:41;3.28;;;1.10;;
40729;SDS011;26418;50.070;8.436;2023-03-14T09:36:06;1.20;;;0.80;;
40729;SDS011;26418;50.070;8.436;2023-03-14T09:38:32;2.22;;;0.75;;
40729;SDS011;26418;50.070;8.436;2023-03-14T09:40:59;2.17;;;0.70;;
40729;SDS011;26418;50.070;8.436;2023-03-14T09:43:26;2.55;;;1.13;;
40729;SDS011;26418;50.070;8.436;2023-03-14T09:45:55;3.15;;;1.17;;
40729;SDS011;26418;50.070;8.436;2023-03-14T09:48:22;3.55;;;1.30;;
40729;SDS011;26418;50.070;8.436;2023-03-14T09:50:52;1.27;;;0.85;;
40729;SDS011;26418;50.070;8.436;2023-03-14T09:54:02;1.20;;;1.10;;
40729;SDS011;26418;50.070;8.436;2023-03-14T09:56:17;2.80;;;0.70;;
40729;SDS011;26418;50.070;8.436;2023-03-14T09:58:47;1.23;;;0.85;;
40729;SDS011;26418;50.070;8.436;2023-03-14T10:01:17;3.42;;;0.90;;
40729;SDS011;26418;50.070;8.436;2023-03-14T10:03:49;2.42;;;0.80;;
40729;SDS011;26418;50.070;8.436;2023-03-14T10:06:18;1.42;;;0.90;;
40729;SDS011;26418;50.070;8.436;2023-03-14T10:08:44;2.92;;;0.80;;
40729;SDS011;26418;50.070;8.436;2023-03-14T10:11:16;0.95;;;0.70;;
40729;SDS011;26418;50.070;8.436;2023-03-14T10:16:28;2.55;;;0.90;;
40729;SDS011;26418;50.070;8.436;2023-03-14T10:19:00;1.63;;;1.00;;
40729;SDS011;26418;50.070;8.436;2023-03-14T10:21:29;2.63;;;0.90;;
40729;SDS011;26418;50.070;8.436;2023-03-14T10:26:54;1.05;;;0.80;;
40729;SDS011;26418;50.070;8.436;2023-03-14T10:29:23;1.02;;;0.80;;
40729;SDS011;26418;50.070;8.436;2023-03-14T10:31:50;2.22;;;0.88;;
40729;SDS011;26418;50.070;8.436;2023-03-14T10:34:20;1.58;;;1.00;;
40729;SDS011;26418;50.070;8.436;2023-03-14T10:36:54;1.55;;;0.80;;
40729;SDS011;26418;50.070;8.436;2023-03-14T10:39:28;4.53;;;0.77;;
40729;SDS011;26418;50.070;8.436;2023-03-14T10:42:10;1.35;;;1.00;;
40729;SDS011;26418;50.070;8.436;2023-03-14T10:44:39;1.80;;;1.17;;
40729;SDS011;26418;50.070;8.436;2023-03-14T10:47:06;1.65;;;0.90;;
40729;SDS011;26418;50.070;8.436;2023-03-14T10:49:44;2.25;;;0.70;;
40729;SDS011;26418;50.070;8.436;2023-03-14T10:52:14;3.28;;;1.02;;
40729;SDS011;26418;50.070;8.436;2023-03-14T10:54:47;0.98;;;0.73;;
40729;SDS011;26418;50.070;8.436;2023-03-14T10:57:13;2.40;;;1.23;;
40729;SDS011;26418;50.070;8.436;2023-03-14T10:59:40;1.55;;;1.13;;
40729;SDS011;26418;50.070;8.436;2023-03-14T11:07:45;2.92;;;1.42;;
40729;SDS011;26418;50.070;8.436;2023-03-14T11:13:08;1.50;;;0.85;;
40729;SDS011;26418;50.070;8.436;2023-03-14T11:21:08;1.83;;;0.95;;
40729;SDS011;26418;50.070;8.436;2023-03-14T11:24:00;2.03;;;1.33;;
40729;SDS011;26418;50.070;8.436;2023-03-14T11:32:03;1.80;;;0.80;;
40729;SDS011;26418;50.070;8.436;2023-03-14T11:34:49;1.23;;;1.00;;
40729;SDS011;26418;50.070;8.436;2023-03-14T11:37:17;1.98;;;0.93;;
40729;SDS011;26418;50.070;8.436;2023-03-14T11:39:54;3.55;;;0.75;;
40729;SDS011;26418;50.070;8.436;2023-03-14T11:42:40;1.08;;;0.80;;
40729;SDS011;26418;50.070;8.436;2023-03-14T11:45:18;0.68;;;0.68;;
40729;SDS011;26418;50.070;8.436;2023-03-14T11:50:59;1.20;;;0.60;;
40729;SDS011;26418;50.070;8.436;2023-03-14T11:56:18;2.28;;;1.02;;
40729;SDS011;26418;50.070;8.436;2023-03-14T11:58:55;1.55;;;0.90;;
40729;SDS011;26418;50.070;8.436;2023-03-14T12:01:27;1.10;;;0.50;;
40729;SDS011;26418;50.070;8.436;2023-03-14T12:04:05;0.57;;;0.15;;
40729;SDS011;26418;50.070;8.436;2023-03-14T12:06:45;0.20;;;0.10;;
40729;SDS011;26418;50.070;8.436;2023-03-14T12:09:13;1.20;;;0.13;;
40729;SDS011;26418;50.070;8.436;2023-03-14T12:11:45;0.40;;;0.00;;
40729;SDS011;26418;50.070;8.436;2023-03-14T12:14:21;0.70;;;0.13;;
40729;SDS011;26418;50.070;8.436;2023-03-14T12:16:47;0.28;;;0.00;;
40729;SDS011;26418;50.070;8.436;2023-03-14T12:19:15;0.40;;;0.00;;
40729;SDS011;26418;50.070;8.436;2023-03-14T12:21:50;1.30;;;0.43;;
40729;SDS011;26418;50.070;8.436;2023-03-14T12:24:23;0.60;;;0.30;;
40729;SDS011;26418;50.070;8.436;2023-03-14T12:27:01;2.60;;;0.40;;
40729;SDS011;26418;50.070;8.436;2023-03-14T12:29:28;1.83;;;0.43;;
40729;SDS011;26418;50.070;8.436;2023-03-14T12:34:32;1.02;;;0.30;;
40729;SDS011;26418;50.070;8.436;2023-03-14T12:39:58;0.28;;;0.22;;
40729;SDS011;26418;50.070;8.436;2023-03-14T12:48:14;0.45;;;0.20;;
40729;SDS011;26418;50.070;8.436;2023-03-14T12:50:45;0.30;;;0.10;;
40729;SDS011;26418;50.070;8.436;2023-03-14T12:58:53;1.15;;;0.35;;
40729;SDS011;26418;50.070;8.436;2023-03-14T13:01:21;0.50;;;0.10;;
40729;SDS011;26418;50.070;8.436;2023-03-14T13:03:49;0.52;;;0.20;;
40729;SDS011;26418;50.070;8.436;2023-03-14T13:12:23;0.10;;;0.10;;
40729;SDS011;26418;50.070;8.436;2023-03-14T13:14:56;0.00;;;0.00;;
40729;SDS011;26418;50.070;8.436;2023-03-14T13:17:27;0.17;;;0.10;;
40729;SDS011;26418;50.070;8.436;2023-03-14T13:19:56;0.13;;;0.13;;
40729;SDS011;26418;50.070;8.436;2023-03-14T13:22:26;0.20;;;0.15;;
40729;SDS011;26418;50.070;8.436;2023-03-14T13:25:04;0.82;;;0.00;;
40729;SDS011;26418;50.070;8.436;2023-03-14T13:27:32;0.30;;;0.10;;
40729;SDS011;26418;50.070;8.436;2023-03-14T13:30:04;0.25;;;0.17;;
40729;SDS011;26418;50.070;8.436;2023-03-14T13:32:39;0.10;;;0.10;;
40729;SDS011;26418;50.070;8.436;2023-03-14T13:35:27;0.30;;;0.10;;
40729;SDS011;26418;50.070;8.436;2023-03-14T13:38:00;0.50;;;0.20;;
40729;SDS011;26418;50.070;8.436;2023-03-14T13:40:30;0.38;;;0.30;;
40729;SDS011;26418;50.070;8.436;2023-03-14T13:43:05;1.52;;;0.38;;
40729;SDS011;26418;50.070;8.436;2023-03-14T13:45:44;0.35;;;0.20;;
40729;SDS011;26418;50.070;8.436;2023-03-14T13:48:15;2.90;;;0.82;;
40729;SDS011;26418;50.070;8.436;2023-03-14T13:50:45;0.10;;;0.08;;
40729;SDS011;26418;50.070;8.436;2023-03-14T13:53:21;0.40;;;0.10;;
40729;SDS011;26418;50.070;8.436;2023-03-14T13:55:47;0.60;;;0.10;;
40729;SDS011;26418;50.070;8.436;2023-03-14T13:58:24;2.63;;;0.32;;
40729;SDS011;26418;50.070;8.436;2023-03-14T14:00:59;8.23;;;0.40;;
40729;SDS011;26418;50.070;8.436;2023-03-14T14:03:31;0.20;;;0.17;;
40729;SDS011;26418;50.070;8.436;2023-03-14T14:05:58;0.40;;;0.30;;
40729;SDS011;26418;50.070;8.436;2023-03-14T14:08:24;0.10;;;0.00;;
40729;SDS011;26418;50.070;8.436;2023-03-14T14:10:50;1.05;;;0.20;;
40729;SDS011;26418;50.070;8.436;2023-03-14T14:13:21;0.20;;;0.10;;
40729;SDS011;26418;50.070;8.436;2023-03-14T14:15:50;0.40;;;0.20;;
40729;SDS011;26418;50.070;8.436;2023-03-14T14:18:18;0.22;;;0.10;;
40729;SDS011;26418;50.070;8.436;2023-03-14T14:20:47;1.10;;;0.35;;
40729;SDS011;26418;50.070;8.436;2023-03-14T14:23:20;0.20;;;0.10;;
40729;SDS011;26418;50.070;8.436;2023-03-14T14:25:51;0.43;;;0.10;;
40729;SDS011;26418;50.070;8.436;2023-03-14T14:28:38;0.13;;;0.10;;
40729;SDS011;26418;50.070;8.436;2023-03-14T14:31:04;0.70;;;0.40;;
40729;SDS011;26418;50.070;8.436;2023-03-14T14:33:42;0.82;;;0.43;;
40729;SDS011;26418;50.070;8.436;2023-03-14T14:39:17;0.43;;;0.28;;
40729;SDS011;26418;50.070;8.436;2023-03-14T14:41:45;1.08;;;0.20;;
40729;SDS011;26418;50.070;8.436;2023-03-14T14:44:13;0.35;;;0.20;;
40729;SDS011;26418;50.070;8.436;2023-03-14T14:46:43;0.17;;;0.10;;
40729;SDS011;26418;50.070;8.436;2023-03-14T14:49:10;0.30;;;0.10;;
40729;SDS011;26418;50.070;8.436;2023-03-14T14:51:50;0.10;;;0.10;;
40729;SDS011;26418;50.070;8.436;2023-03-14T14:54:20;0.20;;;0.10;;
40729;SDS011;26418;50.070;8.436;2023-03-14T14:57:01;2.00;;;0.13;;
40729;SDS011;26418;50.070;8.436;2023-03-14T14:59:29;0.13;;;0.10;;
40729;SDS011;26418;50.070;8.436;2023-03-14T15:01:56;0.95;;;0.30;;
40729;SDS011;26418;50.070;8.436;2023-03-14T15:04:22;0.50;;;0.30;;
40729;SDS011;26418;50.070;8.436;2023-03-14T15:06:48;0.55;;;0.25;;
40729;SDS011;26418;50.070;8.436;2023-03-14T15:09:15;0.30;;;0.20;;
40729;SDS011;26418;50.070;8.436;2023-03-14T15:11:42;0.50;;;0.20;;
40729;SDS011;26418;50.070;8.436;2023-03-14T15:14:07;1.95;;;0.40;;
40729;SDS011;26418;50.070;8.436;2023-03-14T15:16:32;0.50;;;0.17;;
40729;SDS011;26418;50.070;8.436;2023-03-14T15:18:59;0.22;;;0.10;;
40729;SDS011;26418;50.070;8.436;2023-03-14T15:21:26;0.10;;;0.10;;
40729;SDS011;26418;50.070;8.436;2023-03-14T15:23:53;0.22;;;0.10;;
40729;SDS011;26418;50.070;8.436;2023-03-14T15:26:19;0.10;;;0.10;;
40729;SDS011;26418;50.070;8.436;2023-03-14T15:28:47;0.75;;;0.20;;
40729;SDS011;26418;50.070;8.436;2023-03-14T15:31:13;0.30;;;0.25;;
40729;SDS011;26418;50.070;8.436;2023-03-14T15:33:40;0.10;;;0.10;;
40729;SDS011;26418;50.070;8.436;2023-03-14T15:36:06;2.38;;;0.25;;
40729;SDS011;26418;50.070;8.436;2023-03-14T15:38:44;0.57;;;0.13;;
40729;SDS011;26418;50.070;8.436;2023-03-14T15:41:09;1.60;;;0.50;;
40729;SDS011;26418;50.070;8.436;2023-03-14T15:43:35;0.57;;;0.52;;
40729;SDS011;26418;50.070;8.436;2023-03-14T15:46:00;1.52;;;0.70;;
40729;SDS011;26418;50.070;8.436;2023-03-14T15:48:25;1.67;;;0.68;;
40729;SDS011;26418;50.070;8.436;2023-03-14T15:50:51;0.88;;;0.50;;
40729;SDS011;26418;50.070;8.436;2023-03-14T15:53:16;1.27;;;0.43;;
40729;SDS011;26418;50.070;8.436;2023-03-14T15:55:41;1.38;;;0.40;;
40729;SDS011;26418;50.070;8.436;2023-03-14T15:58:09;0.85;;;0.25;;
40729;SDS011;26418;50.070;8.436;2023-03-14T16:00:41;0.47;;;0.20;;